Home   Weather   Canada   Thompson   Past weeks
Flag for Canada

Past Weather in Thompson, Manitoba, Canada — Yesterday and Last 2 Weeks

Currently: 59 °F. Partly sunny. (Weather station: Thompson, Canada). See more current weather

Past Weather in Thompson — Graph

°F

Thompson Temperature Yesterday

Maximum temperature yesterday: 86 °F (at 5:00 pm)
Minimum temperature yesterday: 48 °F (at 4:00 am)
Average temperature yesterday: 69 °F

High & Low Weather Summary for the Past Weeks

 TemperatureHumidityPressure
High86 °F (Aug 3, 5:00 pm)100% (Jul 24, 12:00 am)30.23 "Hg (Jul 24, 12:00 am)
Low34 °F (Jul 26, 4:00 am)29% (Jul 26, 3:00 pm)29.49 "Hg (Jul 23, 8:13 pm)
Average64 °F66%29.91 "Hg
* Reported Jul 20 1:00 pm — Aug 4 1:00 pm, Thompson. Weather by CustomWeather, © 2021

Note: Actual official high and low records may vary slightly from our data, if they occured in-between our weather recording intervals... More about our weather records

Thompson Weather History for the Previous 24 Hours

Scroll right to see more
 ConditionsComfort  
Time TempWeatherWind HumidityBarometerVisibility
1:00 pm
Wed, Aug 4
55 °FPartly sunny.10 mph77%29.93 "Hg15 mi
12:49 pm55 °FOvercast.13 mph77%29.93 "Hg15 mi
12:00 pm54 °FMostly cloudy.15 mph82%29.92 "Hg12 mi
11:33 am54 °FMostly cloudy.17 mph88%29.90 "Hg12 mi
11:00 am54 °FMostly cloudy.12 mph94%29.89 "Hg8 mi
10:33 am55 °FMostly cloudy.14 mph88%29.88 "Hg8 mi
10:18 am57 °FMostly cloudy.16 mph82%29.87 "Hg5 mi
10:00 am59 °FMostly cloudy.17 mph77%29.86 "Hg5 mi
9:00 am59 °FMore clouds than sun.12 mph82%29.82 "Hg5 mi
8:24 am59 °FMore clouds than sun.20 mph82%29.80 "Hg4 mi
8:00 am59 °FMostly cloudy.17 mph88%29.79 "Hg3 mi
7:00 am63 °FFog.7 mph88%29.75 "Hg2 mi
6:20 am63 °FMostly cloudy.2 mph88%29.73 "Hg2 mi
6:00 am64 °FSprinkles. Cloudy.5 mph83%29.73 "Hg2 mi
5:34 am66 °FSprinkles. Mostly cloudy.8 mph78%29.73 "Hg2 mi
5:15 am66 °FFog.12 mph78%29.72 "Hg2 mi
5:00 am66 °FSprinkles. Mostly cloudy.8 mph78%29.72 "Hg3 mi
4:00 am72 °FSprinkles. Fog.10 mph65%29.72 "Hg3 mi
3:03 am72 °FFog.9 mph65%29.71 "Hg2 mi
2:00 am72 °FFog.6 mph61%29.72 "Hg3 mi
1:22 am73 °FFog.6 mph57%29.73 "Hg3 mi
1:00 am75 °FSprinkles. Mostly cloudy.9 mph54%29.73 "Hg3 mi
12:52 am75 °FSprinkles. Mostly cloudy.12 mph54%29.72 "Hg3 mi
12:00 am70 °FLight fog.7 mph69%29.73 "Hg5 mi
11:00 pm
Tue, Aug 3
72 °FPartly cloudy.3 mph61%29.74 "Hg5 mi
10:00 pm72 °FFog.3 mph61%29.75 "Hg3 mi
9:00 pm79 °FBroken clouds.5 mph45%29.76 "Hg5 mi
8:00 pm81 °FPartly sunny.7 mph42%29.77 "Hg5 mi
7:00 pm84 °FBroken clouds.10 mph40%29.78 "Hg5 mi
6:44 pm84 °FPartly sunny.13 mph37%29.78 "Hg5 mi
6:00 pm86 °FPartly sunny.12 mph38%29.79 "Hg8 mi
5:00 pm86 °FBroken clouds.13 mph40%29.80 "Hg5 mi
4:00 pm84 °FBroken clouds.12 mph43%29.82 "Hg5 mi
3:00 pm84 °FLight fog.14 mph40%29.83 "Hg5 mi
Weather by CustomWeather, © 2021

See weather overview